Cannon Air Force Base
KCVS : now visible

Airfield :











YOU CAN JOIN US ON...

 
LOGIN :

Register | Disclaimer

   EN    FR    IT 

 









Legend :    VFR   Marginal VFR   IFR   Intensive IFR   Very Intensive IFR
Visi :
Ceiling :
>= 8 km
>= 3000ft
5 to 8 km
1000 to 3000 ft
1500m to 5 km
500 to 1000 ft
800 to 1500m
200 to 500 ft
< 800m
< 200 ft
Symbols :   Thunderstorms  Fog  Heavy snow  Heavy precipitations  Wind > 20 kt






- Airport Elevation : 4295 ft


KCVS - Cannon Air Force Base

CURRENT METAR :
  • 200158Z AUTO 03005KT 10SM OVC150 03/M01 A3045 RMK AO2 SLP328 T00261009 $

EXPIRED METARs :
  • 200058Z AUTO 07004KT 10SM OVC160 04/M02 A3043 RMK AO2 SLP321 T00371021 $
  • 192358Z AUTO 00000KT 10SM OVC160 06/M05 A3041 RMK AO2 SLP310 T00601050 10081 20018 53003 $

TAF TAF KCVS
Valid from the 20 at 02:00 until the 21 at 08:00 UTC


200200Z 2002/2108 VRB04KT 9999 BKN160 QNH3043INS
BECMG 2008/2009 VRB04KT 9999 SKC QNH3035INS
BECMG 2105/2106 00000KT 9999 BKN100 QNH3033INS LAST NO AMDS AFT 2002 NEXT 2110 TX11/2022Z TNM04/2014Z



MET'MAP, your aeronautical weather chart ! - Copyright ORBIFLY December 2007 - Disclaimer

ORBIFLY MET'MAP TEAM :

Programming & Development : Alexandra Zaïnal
Concept & original design : Baudouin d'Aumeries
Assistance for programming : Marc-Olivier Méhu
Technical & hardware support : Manuel Goepfert

Contact : metmap@orbifly.com




SOURCES & CREDITS :

   NOAA       Earth
Advisory